This is the latest recevied weather packets stored in our database for station/object KF4LQQ-13. If no packets are shown the sender has not sent any weather packets the latest 10 day(s).
| Time | Temp. | Humidity | Pressure | Rain* | Wind** | Luminosity | Snow |
|---|---|---|---|---|---|---|---|
| 1777904714 | 22.78° C | - | 1014.3 hPa | 0 mm | - | - | - |
| 1777904113 | 22.22° C | - | 1014.3 hPa | 0 mm | - | - | - |
| 1777903512 | 22.22° C | - | 1014.2 hPa | 0 mm | - | - | - |
| 1777902912 | 21.67° C | - | 1014.3 hPa | 0 mm | - | - | - |
| 1777902312 | 21.67° C | - | 1014.3 hPa | 0 mm | - | - | - |
| 1777901711 | 21.11° C | - | 1014.2 hPa | 0 mm | - | - | - |
| 1777901687 | 21.11° C | - | 1014 hPa | 0 mm | - | - | - |
| 1777901110 | 21.11° C | - | 1014 hPa | 0 mm | - | - | - |
| 1777900510 | 21.11° C | - | 1013.9 hPa | 0 mm | - | - | - |
| 1777899910 | 20.56° C | - | 1014 hPa | 0 mm | - | - | - |
| 1777899309 | 20.56° C | - | 1014 hPa | 0 mm | - | - | - |
| 1777898709 | 20.56° C | - | 1013.9 hPa | 0 mm | - | - | - |
| 1777898109 | 20° C | - | 1013.9 hPa | 0 mm | - | - | - |
| 1777897509 | 20° C | - | 1013.9 hPa | 0 mm | - | - | - |
| 1777896908 | 20° C | - | 1013.9 hPa | 0 mm | - | - | - |
| 1777896308 | 20° C | - | 1013.8 hPa | 0 mm | - | - | - |
| 1777895708 | 20° C | - | 1013.7 hPa | 0 mm | - | - | - |
| 1777895105 | 20° C | - | 1013.7 hPa | 0 mm | - | - | - |
| 1777894504 | 20° C | - | 1013.6 hPa | 0 mm | - | - | - |
| 1777893903 | 20° C | - | 1013.6 hPa | 0 mm | - | - | - |
| 1777893303 | 20° C | - | 1013.5 hPa | 0 mm | - | - | - |
| 1777892703 | 20° C | - | 1013.4 hPa | 0 mm | - | - | - |
| 1777892102 | 20° C | - | 1013.2 hPa | 0 mm | - | - | - |
| 1777891502 | 20° C | - | 1013.1 hPa | 0 mm | - | - | - |
| 1777890901 | 20.56° C | - | 1012.9 hPa | 0 mm | - | - | - |
* Rain since midnight (hover to see other rain measurements)
** Current wind speed in m/s (hover to see current wind gust speed)